Latest Coastal Weather Observations for Minlaton Airport

IDS60701

Issued at 9:41 pm CDT Monday 2 March 2015 (issued every 10 minutes, with the page automatically refreshed every 10 minutes)

About coastal observations | Map of coastal stations | Coastal observations for SA | Marine services | Other Formats
Station Details ID: 022031 Name: MINLATON AERO Lat: -34.75 Lon: 137.53 Height: 32.0 m
Data from the previous 72 hours. | See also: Recent months at Minlaton Airport
Date/Time
CDT
Temp

°C
Wind Pressure Rain
since 9am
mm
Weather Cloud Vis
km
Sea
Height
m
Swell
Dir
 
Speed
knots
Gust
knots
hPa Trend Height
m
Period
s
Dir
02/09:30pm 17.0 SSE 7 8 1016.4 - 0.0 - - - - - - -
02/09:00pm 17.1 SSW 10 11 1015.9 - 0.0 - - - - - - -
02/08:30pm 18.1 SSW 11 15 1015.8 - 0.0 - - - - - - -
02/08:00pm 19.6 S 10 14 1015.3 - 0.0 - - - - - - -
02/07:30pm 20.3 S 9 12 1014.9 - 0.0 - - - - - - -
02/07:00pm 20.7 S 9 11 1014.5 - 0.0 - - - - - - -
02/06:30pm 21.9 SSW 8 10 1014.4 - 0.0 - - - - - - -
02/06:00pm 21.7 W 9 13 1014.1 - 0.0 - - - - - - -
02/05:30pm 22.2 WSW 9 13 1013.7 - 0.0 - - - - - - -
02/05:00pm 22.3 WSW 11 14 1013.3 - 0.0 - - - - - - -
02/04:30pm 23.6 WSW 9 12 1013.3 - 0.0 - - - - - - -
02/04:00pm 23.1 SSW 7 8 1012.9 - 0.0 - - - - - - -
02/03:30pm 21.4 SW 9 11 1013.5 - 0.0 - - - - - - -
02/03:00pm 21.8 WSW 13 16 1014.0 - 0.0 - - - - - - -
02/02:30pm 22.8 WSW 10 13 1013.9 - 0.0 - - - - - - -
02/02:00pm 23.4 WSW 10 12 1013.8 - 0.0 - - - - - - -
02/01:30pm 23.8 W 9 11 1013.7 - 0.0 - - - - - - -
02/01:00pm 24.1 WSW 5 7 1013.4 - 0.0 - - - - - - -
02/12:30pm 23.5 W 7 9 1013.8 - 0.0 - - - - - - -
02/12:00pm 24.8 N 8 12 1014.0 - 0.0 - - - - - - -
02/11:30am 23.9 NNE 8 12 1014.3 - 0.0 - - - - - - -
02/11:00am 23.5 NNE 7 11 1014.8 - 0.0 - - - - - - -
02/10:30am 21.7 N 4 6 1015.0 - 0.0 - - - - - - -
02/10:00am 20.9 N 4 6 1015.3 - 0.0 - - - - - - -
02/09:30am 19.8 N 1 5 1015.2 - 0.0 - - - - - - -
02/09:00am 18.7 NE 5 10 1015.2 - 0.0 - - - - - - -
02/08:30am 18.2 ENE 11 17 1014.9 - 0.0 - - - - - - -
02/08:00am 16.8 E 5 9 1014.9 - 0.0 - - - - - - -
02/07:30am 16.1 NW 1 3 1015.2 - 0.0 - - - - - - -
02/07:00am 16.1 N 4 7 1014.6 - 0.0 - - - - - - -
02/06:30am 16.4 E 10 14 1014.3 - 0.0 - - - - - - -
02/06:00am 16.5 E 14 16 1014.1 - 0.0 - - - - - - -
02/05:30am 16.5 E 15 18 1013.9 - 0.0 - - - - - - -
02/05:00am 16.4 E 17 20 1013.5 - 0.0 - - - - - - -
02/04:30am 16.2 ESE 17 21 1013.4 - 0.0 - - - - - - -
02/04:00am 16.0 ESE 18 22 1013.4 - 0.0 - - - - - - -
02/03:30am 16.0 ESE 18 21 1013.8 - 0.0 - - - - - - -
02/03:00am 15.6 ESE 18 23 1014.1 - 0.0 - - - - - - -
02/02:30am 15.4 ESE 13 17 1014.5 - 0.0 - - - - - - -
02/02:00am 15.4 SE 11 16 1015.4 - 0.0 - - - - - - -
02/01:30am 15.1 SE 11 14 1015.5 - 0.0 - - - - - - -
02/01:00am 15.4 SE 11 15 1015.8 - 0.0 - - - - - - -
02/12:30am 15.2 SE 11 13 1016.0 - 0.0 - - - - - - -
02/12:00am 15.1 SE 11 13 1016.4 - 0.0 - - - - - - -
 
Date/Time
CDT
Temp

°C
Wind Pressure Rain
since 9am
mm
Weather Cloud Vis
km
Sea
Height
m
Swell
Dir
 
Speed
knots
Gust
knots
hPa Trend Height
m
Period
s
Dir
01/11:30pm 15.3 SE 11 14 1016.6 - 0.0 - - - - - - -
01/11:00pm 15.6 SE 13 16 1016.8 - 0.0 - - - - - - -
01/10:30pm 15.8 SE 14 18 1016.5 - 0.0 - - - - - - -
01/10:00pm 16.0 SE 15 18 1016.7 - 0.0 - - - - - - -
01/09:30pm 16.1 SSE 15 20 1016.8 - 0.0 - - - - - - -
01/09:00pm 16.5 SSE 15 19 1016.6 - 0.0 - - - - - - -
01/08:30pm 16.8 SSE 13 17 1016.8 - 0.0 - - - - - - -
01/08:00pm 17.7 SSE 14 18 1016.7 - 0.0 - - - - - - -
01/07:30pm 19.0 SSE 16 21 1016.3 - 0.0 - - - - - - -
01/07:00pm 20.0 SSE 16 19 1016.2 - 0.0 - - - - - - -
01/06:30pm 20.7 SE 17 22 1015.8 - 0.0 - - - - - - -
01/06:00pm 21.6 SE 17 21 1015.8 - 0.0 - - - - - - -
01/05:30pm 22.6 SE 16 21 1015.4 - 0.0 - - - - - - -
01/05:00pm 22.6 SSE 16 22 1015.5 - 0.0 - - - - - - -
01/04:30pm 22.9 SSE 16 23 1015.8 - 0.0 - - - - - - -
01/04:00pm 23.8 SE 14 20 1016.2 - 0.0 - - - - - - -
01/03:30pm 23.1 SSE 14 19 1016.4 - 0.0 - - - - - - -
01/03:00pm 23.7 SSE 12 20 1016.5 - 0.0 - - - - - - -
01/02:30pm 23.6 SSE 15 25 1016.7 - 0.0 - - - - - - -
01/02:26pm 23.4 SE 15 25 1016.6 - 0.0 - - - - - - -
01/02:00pm 24.6 SE 12 23 1016.7 - 0.0 - - - - - - -
01/01:30pm 23.3 SE 18 24 1016.9 - 0.0 - - - - - - -
01/01:00pm 23.2 SSE 15 21 1017.2 - 0.0 - - - - - - -
01/12:30pm 22.6 SSE 15 22 1017.6 - 0.0 - - - - - - -
01/12:00pm 21.1 SSE 17 23 1017.7 - 0.0 - - - - - - -
01/11:30am 20.4 S 15 19 1017.8 - 0.0 - - - - - - -
01/11:00am 19.6 S 15 21 1017.8 - 0.0 - - - - - - -
01/10:30am 19.2 S 15 23 1017.7 - 0.0 - - - - - - -
01/10:00am 19.0 S 14 19 1017.3 - 0.0 - - - - - - -
01/09:30am 18.7 S 15 20 1016.9 - 0.0 - - - - - - -
01/09:00am 18.4 S 12 16 1016.6 - 0.2 - - - - - - -
01/08:30am 17.3 S 13 18 1016.4 - 0.2 - - - - - - -
01/08:00am 16.9 S 11 13 1016.0 - 0.2 - - - - - - -
01/07:30am 15.7 S 9 12 1015.6 - 0.2 - - - - - - -
01/07:00am 13.3 SSE 6 7 1015.1 - 0.2 - - - - - - -
01/06:30am 12.0 S 5 5 1014.7 - 0.2 - - - - - - -
01/06:00am 9.9 S 6 6 1014.3 - 0.2 - - - - - - -
01/05:30am 10.9 S 6 7 1014.0 - 0.2 - - - - - - -
01/05:00am 13.5 S 8 10 1013.7 - 0.2 - - - - - - -
01/04:30am 15.3 SSW 13 17 1013.5 - 0.2 - - - - - - -
01/04:00am 15.9 SSW 15 18 1013.3 - 0.2 - - - - - - -
01/03:30am 16.3 SSW 14 18 1013.2 - 0.2 - - - - - - -
01/03:00am 16.2 SSW 12 17 1013.1 - 0.2 - - - - - - -
01/02:30am 14.0 SSW 9 11 1013.1 - 0.2 - - - - - - -
01/02:00am 14.1 SSW 8 10 1013.1 - 0.2 - - - - - - -
01/01:30am 14.8 SSW 9 11 1013.1 - 0.2 - - - - - - -
01/01:00am 15.7 SSW 11 14 1013.1 - 0.2 - - - - - - -
01/12:30am 16.3 SSW 13 16 1013.1 - 0.2 - - - - - - -
01/12:00am 16.8 SSW 12 16 1012.9 - 0.2 - - - - - - -
 
Date/Time
CDT
Temp

°C
Wind Pressure Rain
since 9am
mm
Weather Cloud Vis
km
Sea
Height
m
Swell
Dir
 
Speed
knots
Gust
knots
hPa Trend Height
m
Period
s
Dir
28/11:30pm 17.3 SSW 14 18 1012.9 - 0.2 - - - - - - -
28/11:00pm 17.2 SSW 10 14 1012.8 - 0.2 - - - - - - -
28/10:30pm 15.5 SSW 7 9 1012.6 - 0.2 - - - - - - -
28/10:00pm 16.0 S 7 8 1012.5 - 0.2 - - - - - - -
28/09:30pm 17.5 SSW 9 11 1011.9 - 0.2 - - - - - - -
28/09:00pm 18.4 SSW 11 15 1011.2 - 0.2 - - - - - - -
28/08:30pm 19.3 SSW 12 16 1010.5 - 0.2 - - - - - - -
28/08:00pm 20.2 SSW 15 21 1009.9 - 0.2 - - - - - - -
28/07:30pm 21.0 SSW 16 21 1009.2 - 0.2 - - - - - - -
28/07:00pm 21.5 S 18 23 1008.6 - 0.2 - - - - - - -
28/06:30pm 22.2 SSW 19 23 1008.1 - 0.2 - - - - - - -
28/06:00pm 22.2 SSW 19 25 1007.7 - 0.2 - - - - - - -
28/05:30pm 23.4 SSW 19 26 1007.1 - 0.2 - - - - - - -
28/05:00pm 24.3 SSW 19 25 1006.7 - 0.2 - - - - - - -
28/04:30pm 26.2 SSW 19 26 1006.1 - 0.2 - - - - - - -
28/04:29pm 26.5 SSW 20 25 1006.1 - 0.2 - - - - - - -
28/04:00pm 28.5 SW 21 27 1005.4 - 0.2 - - - - - - -
28/03:30pm 28.4 SW 20 26 1005.3 - 0.2 - - - - - - -
28/03:00pm 28.6 SW 23 28 1004.8 - 0.2 - - - - - - -
28/02:30pm 28.3 SW 17 22 1004.9 - 0.2 - - - - - - -
28/02:00pm 25.5 SW 14 21 1005.2 - 0.2 - - - - - - -
28/01:30pm 24.7 SSW 16 21 1004.7 - 0.2 - - - - - - -
28/01:00pm 27.4 WSW 13 17 1004.3 - 0.0 - - - - - - -
28/12:30pm 26.8 W 11 14 1004.3 - 0.0 - - - - - - -
28/12:00pm 28.3 W 14 18 1004.8 - 0.0 - - - - - - -
28/11:30am 27.7 W 12 17 1005.0 - 0.0 - - - - - - -
28/11:00am 27.2 WNW 18 22 1004.8 - 0.0 - - - - - - -
28/10:30am 28.9 NW 14 17 1004.3 - 0.0 - - - - - - -
28/10:00am 28.5 NNW 14 18 1004.2 - 0.0 - - - - - - -
28/09:30am 26.2 NNW 13 17 1004.0 - 0.0 - - - - - - -
28/09:00am 25.4 NNW 9 11 1004.0 - 0.0 - - - - - - -
28/08:30am 23.7 NW 5 8 1003.7 - 0.0 - - - - - - -
28/08:00am 22.1 NNW 4 7 1003.5 - 0.0 - - - - - - -
28/07:30am 19.8 N 7 9 1003.1 - 0.0 - - - - - - -
28/07:00am 20.0 NNE 6 8 1002.9 - 0.0 - - - - - - -
28/06:30am 20.2 N 7 9 1002.7 - 0.0 - - - - - - -
28/06:00am 22.1 NNE 10 13 1002.8 - 0.0 - - - - - - -
28/05:30am 23.7 NE 13 17 1002.4 - 0.0 - - - - - - -
28/05:00am 24.0 NE 16 19 1001.9 - 0.0 - - - - - - -
28/04:30am 24.1 ENE 13 18 1002.1 - 0.0 - - - - - - -
28/04:00am 24.4 ENE 17 21 1002.1 - 0.0 - - - - - - -
28/03:30am 24.0 ENE 18 24 1002.3 - 0.0 - - - - - - -
28/03:00am 24.1 ENE 18 22 1002.7 - 0.0 - - - - - - -
28/02:30am 24.2 ENE 18 22 1003.1 - 0.0 - - - - - - -
28/02:00am 24.6 ENE 18 21 1003.7 - 0.0 - - - - - - -
28/01:30am 24.6 E 18 21 1004.1 - 0.0 - - - - - - -
28/01:00am 24.5 E 15 17 1004.9 - 0.0 - - - - - - -
28/12:30am 24.0 E 13 16 1005.7 - 0.0 - - - - - - -
28/12:00am 23.3 E 16 20 1005.9 - 0.0 - - - - - - -
 
Date/Time
CDT
Temp

°C
Wind Pressure Rain
since 9am
mm
Weather Cloud Vis
km
Sea
Height
m
Swell
Dir
 
Speed
knots
Gust
knots
hPa Trend Height
m
Period
s
Dir
27/11:49pm 24.1 E 11 18 1006.4 - 0.0 - - - - - - -
27/11:30pm 24.3 ESE 3 5 1007.9 - 0.0 - - - - - - -
27/11:00pm 24.4 SE 7 8 1008.2 - 0.0 - - - - - - -
27/10:30pm 25.5 SE 7 11 1008.1 - 0.0 - - - - - - -
27/10:00pm 25.6 ESE 13 17 1007.6 - 0.0 - - - - - - -

Other Formats:

Comma delimited format used in spreadsheet applications
http://www.bom.gov.au/fwo/IDS60701/IDS60701.95659.axf

JavaScript Object Notation format (JSON) in row-major order
http://www.bom.gov.au/fwo/IDS60701/IDS60701.95659.json